createdAt,value
2018-10-18T00:00:13.569Z,11.90
2018-10-18T00:01:16.925Z,11.90
2018-10-18T00:02:20.302Z,11.80
2018-10-18T00:03:23.698Z,11.90
2018-10-18T00:04:27.035Z,11.90
2018-10-18T00:05:30.382Z,12.00
2018-10-18T00:06:33.801Z,12.00
2018-10-18T00:07:37.305Z,12.00
2018-10-18T00:08:40.658Z,12.00
2018-10-18T00:09:44.036Z,12.00
2018-10-18T00:10:47.441Z,11.90
2018-10-18T00:11:50.881Z,11.90
2018-10-18T00:12:54.357Z,11.90
2018-10-18T00:13:57.741Z,11.90
2018-10-18T00:15:01.102Z,11.80
2018-10-18T00:16:04.470Z,11.80
2018-10-18T00:17:13.317Z,11.60
2018-10-18T00:18:16.787Z,11.60
2018-10-18T00:19:20.090Z,11.60
2018-10-18T00:20:23.444Z,11.60
2018-10-18T00:21:26.795Z,11.60
2018-10-18T00:22:30.176Z,11.60
2018-10-18T00:23:33.551Z,11.60
2018-10-18T00:24:36.901Z,11.60
2018-10-18T00:25:40.255Z,11.60
2018-10-18T00:26:43.611Z,11.60
2018-10-18T00:27:47.005Z,11.60
2018-10-18T00:28:50.368Z,11.50
2018-10-18T00:29:53.748Z,11.60
2018-10-18T00:31:03.442Z,11.60
2018-10-18T00:32:07.372Z,11.60
2018-10-18T00:33:10.729Z,11.60
2018-10-18T00:34:14.072Z,11.40
2018-10-18T00:35:17.432Z,11.40
2018-10-18T00:36:20.776Z,11.40
2018-10-18T00:37:24.152Z,11.40
2018-10-18T00:38:27.525Z,11.30
2018-10-18T00:39:30.904Z,11.10
2018-10-18T00:40:34.316Z,11.10
2018-10-18T00:41:37.664Z,11.10
2018-10-18T00:42:41.592Z,11.20
2018-10-18T00:43:44.949Z,11.10
2018-10-18T00:44:48.311Z,11.10
2018-10-18T00:45:51.711Z,11.10
2018-10-18T00:46:55.057Z,11.30
2018-10-18T00:47:58.449Z,11.30
2018-10-18T00:49:01.844Z,11.30
2018-10-18T00:50:06.195Z,11.40
2018-10-18T00:51:09.533Z,11.40
2018-10-18T00:52:12.888Z,11.40
2018-10-18T00:53:16.248Z,11.40
2018-10-18T00:54:19.600Z,11.30
2018-10-18T00:55:22.953Z,11.30
2018-10-18T00:56:26.346Z,11.30
2018-10-18T00:57:29.692Z,11.40
2018-10-18T00:58:33.049Z,11.40
2018-10-18T00:59:36.407Z,11.40
2018-10-18T01:00:39.792Z,11.40
2018-10-18T01:01:43.145Z,11.40
2018-10-18T01:02:46.565Z,11.30
2018-10-18T01:03:50.000Z,11.30
2018-10-18T01:04:53.413Z,11.30
2018-10-18T01:05:56.832Z,11.30
2018-10-18T01:07:00.156Z,11.30
2018-10-18T01:08:03.545Z,11.30
2018-10-18T01:09:08.800Z,11.20
2018-10-18T01:10:12.229Z,11.20
2018-10-18T01:11:15.601Z,11.20
2018-10-18T01:12:19.101Z,11.20
2018-10-18T01:13:22.466Z,11.30
2018-10-18T01:14:25.852Z,11.30
2018-10-18T01:15:29.232Z,11.30
2018-10-18T01:16:32.592Z,11.30
2018-10-18T01:17:35.931Z,11.30
2018-10-18T01:18:39.289Z,11.30
2018-10-18T01:19:42.673Z,11.30
2018-10-18T01:20:46.017Z,11.30
2018-10-18T01:21:49.432Z,11.30
2018-10-18T01:22:52.768Z,11.30
2018-10-18T01:23:56.184Z,11.20
2018-10-18T01:24:59.565Z,11.20
2018-10-18T01:26:03.210Z,11.20
2018-10-18T01:27:07.076Z,11.20
2018-10-18T01:28:10.424Z,11.20
2018-10-18T01:29:13.774Z,11.20
2018-10-18T01:30:17.240Z,11.10
2018-10-18T01:31:20.528Z,11.20
2018-10-18T01:32:23.934Z,11.20
2018-10-18T01:33:27.409Z,11.20
2018-10-18T01:34:30.777Z,11.20
2018-10-18T01:35:34.130Z,11.20
2018-10-18T01:36:37.481Z,11.20
2018-10-18T01:37:40.856Z,11.20
2018-10-18T01:38:44.284Z,11.20
2018-10-18T01:39:47.644Z,11.10
2018-10-18T01:40:50.996Z,11.10
2018-10-18T01:41:54.353Z,11.10
2018-10-18T01:42:57.713Z,11.10
2018-10-18T01:44:01.134Z,11.10
2018-10-18T01:45:05.183Z,11.20
2018-10-18T01:46:08.540Z,11.10
2018-10-18T01:47:11.889Z,11.10
2018-10-18T01:48:15.269Z,11.00
2018-10-18T01:49:18.661Z,11.10
2018-10-18T01:50:22.021Z,11.00
2018-10-18T01:51:25.370Z,11.00
2018-10-18T01:52:28.721Z,11.00
2018-10-18T01:53:32.098Z,11.00
2018-10-18T01:54:38.495Z,11.00
2018-10-18T01:55:41.838Z,11.00
2018-10-18T01:56:45.224Z,11.10
2018-10-18T01:57:48.586Z,11.10
2018-10-18T01:58:51.949Z,11.10
2018-10-18T01:59:55.308Z,11.10
2018-10-18T02:00:58.705Z,11.10
2018-10-18T02:02:02.116Z,11.00
2018-10-18T02:03:05.510Z,11.00
2018-10-18T02:04:08.909Z,11.00
2018-10-18T02:05:12.277Z,11.00
2018-10-18T02:06:15.644Z,10.90
2018-10-18T02:07:19.095Z,10.90
2018-10-18T02:08:22.488Z,10.80
2018-10-18T02:09:25.849Z,10.80
2018-10-18T02:10:29.223Z,10.80
2018-10-18T02:11:32.573Z,10.80
2018-10-18T02:12:35.921Z,10.70
2018-10-18T02:13:39.390Z,10.70
2018-10-18T02:14:42.693Z,10.70
2018-10-18T02:15:46.044Z,10.80
2018-10-18T02:16:49.397Z,10.70
2018-10-18T02:17:52.763Z,10.70
2018-10-18T02:18:56.215Z,10.70
2018-10-18T02:19:59.547Z,10.70
2018-10-18T02:21:02.927Z,10.70
2018-10-18T02:22:06.357Z,10.70
2018-10-18T02:23:09.740Z,10.70
2018-10-18T02:24:13.162Z,10.60
2018-10-18T02:25:16.530Z,10.60
2018-10-18T02:26:19.869Z,10.60
2018-10-18T02:27:23.261Z,10.50
2018-10-18T02:28:26.669Z,10.60
2018-10-18T02:29:30.017Z,10.60
2018-10-18T02:30:33.378Z,10.60
2018-10-18T02:31:36.797Z,10.60
2018-10-18T02:32:40.186Z,10.70
2018-10-18T02:33:43.564Z,10.70
2018-10-18T02:34:46.913Z,10.70
2018-10-18T02:35:50.256Z,10.70
2018-10-18T02:36:53.609Z,10.70
2018-10-18T02:37:57.005Z,10.70
2018-10-18T02:39:00.364Z,10.70
2018-10-18T02:40:03.720Z,10.60
2018-10-18T02:41:07.068Z,10.60
2018-10-18T02:42:10.431Z,10.60
2018-10-18T02:43:13.843Z,10.60
2018-10-18T02:44:17.201Z,10.70
2018-10-18T02:45:20.564Z,10.70
2018-10-18T02:46:23.914Z,10.70
2018-10-18T02:47:27.265Z,10.70
2018-10-18T02:48:30.646Z,10.60
2018-10-18T02:49:34.005Z,10.50
2018-10-18T02:50:37.397Z,10.50
2018-10-18T02:51:40.890Z,10.40
2018-10-18T02:52:44.233Z,10.40
2018-10-18T02:53:47.587Z,10.30
2018-10-18T02:54:50.978Z,10.30
2018-10-18T02:55:54.356Z,10.30
2018-10-18T02:56:57.713Z,10.20
2018-10-18T02:58:01.073Z,10.20
2018-10-18T02:59:04.892Z,10.10
2018-10-18T03:00:08.322Z,10.10
2018-10-18T03:01:11.645Z,10.10
2018-10-18T03:02:14.996Z,10.10
2018-10-18T03:03:18.373Z,10.10
2018-10-18T03:04:21.727Z,10.10
2018-10-18T03:05:25.086Z,10.10
2018-10-18T03:06:28.530Z,10.10
2018-10-18T03:07:31.888Z,10.00
2018-10-18T03:08:35.272Z,10.00
2018-10-18T03:09:38.627Z,10.00
2018-10-18T03:10:42.009Z,10.00
2018-10-18T03:11:45.385Z,10.00
2018-10-18T03:12:48.750Z,9.90
2018-10-18T03:13:52.084Z,9.90
2018-10-18T03:14:55.472Z,9.90
2018-10-18T03:15:58.877Z,10.00
2018-10-18T03:17:02.183Z,10.00
2018-10-18T03:18:05.949Z,9.90
2018-10-18T03:19:09.330Z,9.90
2018-10-18T03:20:12.708Z,9.90
2018-10-18T03:21:16.050Z,9.90
2018-10-18T03:22:19.490Z,9.80
2018-10-18T03:23:22.953Z,9.80
2018-10-18T03:24:26.344Z,9.90
2018-10-18T03:25:29.707Z,9.80
2018-10-18T03:26:33.064Z,9.90
2018-10-18T03:27:36.438Z,9.90
2018-10-18T03:28:39.778Z,9.80
2018-10-18T03:29:43.130Z,9.90
2018-10-18T03:30:46.487Z,9.90
2018-10-18T03:31:49.893Z,9.90
2018-10-18T03:32:53.262Z,9.90
2018-10-18T03:33:56.619Z,10.00
2018-10-18T03:34:59.984Z,9.90
2018-10-18T03:36:03.349Z,10.00
2018-10-18T03:37:06.728Z,9.90
2018-10-18T03:38:10.080Z,9.90
2018-10-18T03:39:13.437Z,9.90
2018-10-18T03:40:16.824Z,9.90
2018-10-18T03:41:20.214Z,10.00
2018-10-18T03:42:23.567Z,10.00
2018-10-18T03:43:26.957Z,9.90
2018-10-18T03:44:30.313Z,10.00
2018-10-18T03:45:33.713Z,10.00
2018-10-18T03:46:37.077Z,9.90
2018-10-18T03:47:40.447Z,9.90
2018-10-18T03:48:43.790Z,9.90
2018-10-18T03:49:47.161Z,10.00
2018-10-18T03:50:50.552Z,10.00
2018-10-18T03:51:53.899Z,10.10
2018-10-18T03:52:57.240Z,10.10
2018-10-18T03:54:00.649Z,10.10
2018-10-18T03:55:04.292Z,10.00
2018-10-18T03:56:07.598Z,10.10
2018-10-18T03:57:10.956Z,10.00
2018-10-18T03:58:14.344Z,10.00
2018-10-18T03:59:17.689Z,10.00
2018-10-18T04:00:21.182Z,10.00
2018-10-18T04:01:24.504Z,9.90
2018-10-18T04:02:27.852Z,9.90
2018-10-18T04:03:31.232Z,9.90
2018-10-18T04:04:34.604Z,9.90
2018-10-18T04:05:37.949Z,9.80
2018-10-18T04:06:41.299Z,9.70
2018-10-18T04:07:44.657Z,9.60
2018-10-18T04:08:48.028Z,9.60
2018-10-18T04:09:51.376Z,9.40
2018-10-18T04:10:54.796Z,9.40
2018-10-18T04:11:58.215Z,9.30
2018-10-18T04:13:01.614Z,9.40
2018-10-18T04:14:05.225Z,9.40
2018-10-18T04:15:08.624Z,9.50
2018-10-18T04:16:11.968Z,9.50
2018-10-18T04:17:15.321Z,9.60
2018-10-18T04:18:18.725Z,9.50
2018-10-18T04:19:22.098Z,9.60
2018-10-18T04:20:25.489Z,9.50
2018-10-18T04:21:28.846Z,9.50
2018-10-18T04:22:32.190Z,9.50
2018-10-18T04:23:35.754Z,9.60
2018-10-18T04:24:39.187Z,9.60
2018-10-18T04:25:42.698Z,9.70
2018-10-18T04:26:45.993Z,9.80
2018-10-18T04:27:49.332Z,9.80
2018-10-18T04:28:52.677Z,9.90
2018-10-18T04:29:56.109Z,9.90
2018-10-18T04:30:59.852Z,9.90
2018-10-18T04:32:03.228Z,9.90
2018-10-18T04:33:06.578Z,10.00
2018-10-18T04:34:09.937Z,10.00
2018-10-18T04:35:13.360Z,10.00
2018-10-18T04:36:16.829Z,10.00
2018-10-18T04:37:20.168Z,10.00
2018-10-18T04:38:23.521Z,10.00
2018-10-18T04:39:26.864Z,10.10
2018-10-18T04:40:30.249Z,10.10
2018-10-18T04:41:33.592Z,10.10
2018-10-18T04:42:36.960Z,10.10
2018-10-18T04:43:40.337Z,10.00
2018-10-18T04:44:43.824Z,10.00
2018-10-18T04:45:47.213Z,10.00
2018-10-18T04:46:50.580Z,10.00
2018-10-18T04:47:54.056Z,10.00
2018-10-18T04:48:57.475Z,10.00
2018-10-18T04:50:00.752Z,9.90
2018-10-18T04:51:04.250Z,9.90
2018-10-18T04:52:07.621Z,9.90
2018-10-18T04:53:11.469Z,9.90
2018-10-18T04:54:14.837Z,9.90
2018-10-18T04:55:18.250Z,9.90
2018-10-18T04:56:21.545Z,9.90
2018-10-18T04:57:24.893Z,9.90
2018-10-18T04:58:28.237Z,9.90
2018-10-18T04:59:31.620Z,9.90
2018-10-18T05:00:34.993Z,9.90
2018-10-18T05:01:38.380Z,9.90
2018-10-18T05:02:41.859Z,10.00
2018-10-18T05:03:45.164Z,9.90
2018-10-18T05:05:56.658Z,9.90
2018-10-18T05:07:00.052Z,9.90
2018-10-18T05:08:03.461Z,10.00
2018-10-18T05:09:07.586Z,10.00
2018-10-18T05:10:10.985Z,10.00
2018-10-18T05:11:14.398Z,10.00
2018-10-18T05:12:17.700Z,9.90
2018-10-18T05:13:21.189Z,9.80
2018-10-18T05:14:24.522Z,9.80
2018-10-18T05:15:27.861Z,9.80
2018-10-18T05:16:31.247Z,9.80
2018-10-18T05:17:34.589Z,9.70
2018-10-18T05:18:37.940Z,9.70
2018-10-18T05:19:41.281Z,9.70
2018-10-18T05:20:44.668Z,9.70
2018-10-18T05:21:48.064Z,9.70
2018-10-18T05:22:51.418Z,9.70
2018-10-18T05:23:54.795Z,9.80
2018-10-18T05:24:58.187Z,9.70
2018-10-18T05:26:01.591Z,9.70
2018-10-18T05:27:05.309Z,9.70
2018-10-18T05:28:08.668Z,9.80
2018-10-18T05:29:12.029Z,9.80
2018-10-18T05:30:15.377Z,9.80
2018-10-18T05:31:18.828Z,9.80
2018-10-18T05:32:22.133Z,9.80
2018-10-18T05:33:25.509Z,9.70
2018-10-18T05:34:28.872Z,9.70
2018-10-18T05:35:32.220Z,9.80
2018-10-18T05:36:35.631Z,9.70
2018-10-18T05:37:39.004Z,9.80
2018-10-18T05:38:42.353Z,9.90
2018-10-18T05:39:45.704Z,9.80
2018-10-18T05:40:49.041Z,9.80
2018-10-18T05:41:52.433Z,9.70
2018-10-18T05:42:55.831Z,9.70
2018-10-18T05:43:59.172Z,9.70
2018-10-18T05:45:02.519Z,9.60
2018-10-18T05:46:05.876Z,9.60
2018-10-18T05:47:09.272Z,9.70
2018-10-18T05:48:12.637Z,9.70
2018-10-18T05:49:16.017Z,9.70
2018-10-18T05:50:19.352Z,9.70
2018-10-18T05:51:22.705Z,9.70
2018-10-18T05:52:26.228Z,9.70
2018-10-18T05:53:29.623Z,9.60
2018-10-18T05:54:32.948Z,9.60
2018-10-18T05:55:36.290Z,9.70
2018-10-18T05:56:39.651Z,9.60
2018-10-18T05:57:43.065Z,9.60
2018-10-18T05:58:46.416Z,9.60
2018-10-18T05:59:49.798Z,9.60
2018-10-18T06:00:53.153Z,9.60
2018-10-18T06:01:56.529Z,9.60
2018-10-18T06:02:59.913Z,9.60
2018-10-18T06:04:03.260Z,9.60
2018-10-18T06:05:07.069Z,9.50
2018-10-18T06:06:10.412Z,9.50
2018-10-18T06:07:13.897Z,9.50
2018-10-18T06:08:17.164Z,9.40
2018-10-18T06:09:30.213Z,9.50
2018-10-18T06:10:44.893Z,9.50
2018-10-18T06:11:48.269Z,9.50
2018-10-18T06:12:51.944Z,9.50
2018-10-18T06:13:55.521Z,9.50
2018-10-18T06:14:58.913Z,9.50
2018-10-18T06:16:02.253Z,9.50
2018-10-18T06:17:05.638Z,9.50
2018-10-18T06:18:09.017Z,9.50
2018-10-18T06:19:12.459Z,9.50
2018-10-18T06:20:15.736Z,9.60
2018-10-18T06:21:19.088Z,9.60
2018-10-18T06:22:22.469Z,9.60
2018-10-18T06:23:25.885Z,9.70
2018-10-18T06:24:29.224Z,9.70
2018-10-18T06:25:32.556Z,9.70
2018-10-18T06:26:35.920Z,9.80
2018-10-18T06:27:39.308Z,9.80
2018-10-18T06:28:42.656Z,9.90
2018-10-18T06:29:46.004Z,9.90
2018-10-18T06:30:49.357Z,10.00
2018-10-18T06:31:52.714Z,10.00
2018-10-18T06:32:56.112Z,10.10
2018-10-18T06:33:59.470Z,10.10
2018-10-18T06:35:02.955Z,10.20
2018-10-18T06:36:06.321Z,10.10
2018-10-18T06:37:09.809Z,10.10
2018-10-18T06:38:13.107Z,10.10
2018-10-18T06:39:16.591Z,10.10
2018-10-18T06:40:19.860Z,10.10
2018-10-18T06:41:23.224Z,10.10
2018-10-18T06:42:26.585Z,10.10
2018-10-18T06:43:34.153Z,10.10
2018-10-18T06:44:37.776Z,10.10
2018-10-18T06:45:41.129Z,10.10
2018-10-18T06:46:44.632Z,10.10
2018-10-18T06:47:48.170Z,10.10
2018-10-18T06:48:51.484Z,10.10
2018-10-18T06:49:54.919Z,10.10
2018-10-18T06:50:58.267Z,10.20
2018-10-18T06:52:01.690Z,10.20
2018-10-18T06:53:05.212Z,10.30
2018-10-18T06:54:08.591Z,10.30
2018-10-18T06:55:12.000Z,10.30
2018-10-18T06:56:15.364Z,10.40
2018-10-18T06:57:18.715Z,10.40
2018-10-18T06:58:22.095Z,10.40
2018-10-18T06:59:25.473Z,10.40
2018-10-18T07:00:28.877Z,10.40
2018-10-18T07:01:32.282Z,10.40
2018-10-18T07:02:35.628Z,10.50
2018-10-18T07:03:38.988Z,10.50
2018-10-18T07:04:42.393Z,10.50
2018-10-18T07:05:45.736Z,10.50
2018-10-18T07:06:49.093Z,10.60
2018-10-18T07:07:52.460Z,10.60
2018-10-18T07:08:55.918Z,10.70
2018-10-18T07:09:59.231Z,10.80
2018-10-18T07:11:02.753Z,10.80
2018-10-18T07:12:06.366Z,10.90
2018-10-18T07:13:09.664Z,10.90
2018-10-18T07:14:13.061Z,10.90
2018-10-18T07:15:16.636Z,10.90
2018-10-18T07:16:20.017Z,10.90
2018-10-18T07:17:23.384Z,11.00
2018-10-18T07:18:26.733Z,11.00
2018-10-18T07:19:30.084Z,11.00
2018-10-18T07:20:33.441Z,11.00
2018-10-18T07:21:36.828Z,11.10
2018-10-18T07:22:40.655Z,11.20
2018-10-18T07:23:44.040Z,11.20
2018-10-18T07:24:47.466Z,11.20
2018-10-18T07:25:50.836Z,11.20
2018-10-18T07:26:54.184Z,11.20
2018-10-18T07:27:57.569Z,11.30
2018-10-18T07:29:00.924Z,11.30
2018-10-18T07:30:05.756Z,11.30
2018-10-18T07:31:09.080Z,11.40
2018-10-18T07:32:12.458Z,11.50
2018-10-18T07:33:15.808Z,11.50
2018-10-18T07:34:26.047Z,11.50
2018-10-18T07:35:29.446Z,11.50
2018-10-18T07:36:32.793Z,11.50
2018-10-18T07:37:36.152Z,11.50
2018-10-18T07:38:39.546Z,11.50
2018-10-18T07:39:42.888Z,11.40
2018-10-18T07:40:46.256Z,11.40
2018-10-18T07:41:49.612Z,11.40
2018-10-18T07:42:52.969Z,11.50
2018-10-18T07:43:56.313Z,11.50
2018-10-18T07:44:59.772Z,11.50
2018-10-18T07:46:03.162Z,11.60
2018-10-18T07:47:06.846Z,11.60
2018-10-18T07:48:10.562Z,11.60
2018-10-18T07:49:13.644Z,11.60
2018-10-18T07:50:17.004Z,11.60
2018-10-18T07:51:20.404Z,11.60
2018-10-18T07:52:23.770Z,11.60
2018-10-18T07:53:27.182Z,11.60
2018-10-18T07:54:30.532Z,11.60
2018-10-18T07:55:33.884Z,11.70
2018-10-18T07:56:37.272Z,11.80
2018-10-18T07:57:40.625Z,11.80
2018-10-18T07:58:43.977Z,11.90
2018-10-18T07:59:47.405Z,12.00
2018-10-18T08:00:50.918Z,12.10
2018-10-18T08:01:54.242Z,12.10
2018-10-18T08:02:57.580Z,12.00
2018-10-18T08:04:00.936Z,12.10
2018-10-18T08:05:05.122Z,12.10
2018-10-18T08:06:08.458Z,12.20
2018-10-18T08:07:11.952Z,12.30
2018-10-18T08:08:15.279Z,12.40
2018-10-18T08:09:18.666Z,12.50
2018-10-18T08:10:22.016Z,12.60
2018-10-18T08:11:25.380Z,12.70
2018-10-18T08:12:28.749Z,12.70
2018-10-18T08:13:32.125Z,12.70
2018-10-18T08:14:35.490Z,12.70
2018-10-18T08:15:38.849Z,12.70
2018-10-18T08:16:42.286Z,12.80
2018-10-18T08:17:46.377Z,12.90
2018-10-18T08:18:49.806Z,12.90
2018-10-18T08:19:53.192Z,12.90
2018-10-18T08:20:56.663Z,13.00
2018-10-18T08:22:00.036Z,13.00
2018-10-18T08:23:03.433Z,13.10
2018-10-18T08:24:06.789Z,13.10
2018-10-18T08:25:10.232Z,13.10
2018-10-18T08:26:13.664Z,13.10
2018-10-18T08:27:17.051Z,13.10
2018-10-18T08:28:20.424Z,13.10
2018-10-18T08:29:23.856Z,13.20
2018-10-18T08:30:27.306Z,13.20
2018-10-18T08:31:30.771Z,13.20
2018-10-18T08:32:34.037Z,13.20
2018-10-18T08:33:37.377Z,13.20
2018-10-18T08:34:41.061Z,13.20
2018-10-18T08:35:44.172Z,13.20
2018-10-18T08:36:47.507Z,13.20
2018-10-18T08:37:50.967Z,13.20
2018-10-18T08:38:54.261Z,13.20
2018-10-18T08:39:57.620Z,13.20
2018-10-18T08:41:01.014Z,13.30
2018-10-18T08:42:04.779Z,13.30
2018-10-18T08:43:08.184Z,13.30
2018-10-18T08:44:11.580Z,13.30
2018-10-18T08:45:14.904Z,13.30
2018-10-18T08:46:18.288Z,13.30
2018-10-18T08:47:21.663Z,13.40
2018-10-18T08:48:25.048Z,13.50
2018-10-18T08:49:28.433Z,13.40
2018-10-18T08:50:31.789Z,13.40
2018-10-18T08:51:35.157Z,13.40
2018-10-18T08:52:39.134Z,13.40
2018-10-18T08:53:42.541Z,13.40
2018-10-18T08:54:45.887Z,13.50
2018-10-18T08:55:49.245Z,13.50
2018-10-18T08:56:52.638Z,13.60
2018-10-18T08:57:56.027Z,13.60
2018-10-18T08:58:59.496Z,13.60
2018-10-18T09:00:02.849Z,13.60
2018-10-18T09:01:06.274Z,13.60
2018-10-18T09:02:09.561Z,13.60
2018-10-18T09:03:12.956Z,13.70
2018-10-18T09:04:16.352Z,13.70
2018-10-18T09:05:19.706Z,13.60
2018-10-18T09:06:23.068Z,13.70
2018-10-18T09:07:26.487Z,13.70
2018-10-18T09:08:29.846Z,13.70
2018-10-18T09:09:33.196Z,13.70
2018-10-18T09:10:36.550Z,13.70
2018-10-18T09:11:39.949Z,13.80
2018-10-18T09:12:43.300Z,13.80
2018-10-18T09:13:46.692Z,13.80
2018-10-18T09:14:50.047Z,13.80
2018-10-18T09:15:53.479Z,13.80
2018-10-18T09:16:56.797Z,13.80
2018-10-18T09:18:00.136Z,13.80
2018-10-18T09:19:04.061Z,13.80
2018-10-18T09:20:07.585Z,13.80
2018-10-18T09:21:10.939Z,13.90
2018-10-18T09:22:14.298Z,13.90
2018-10-18T09:23:17.709Z,13.90
2018-10-18T09:24:21.101Z,13.90
2018-10-18T09:25:24.453Z,14.00
2018-10-18T09:26:27.815Z,14.00
2018-10-18T09:27:31.286Z,14.00
2018-10-18T09:28:34.656Z,13.90
2018-10-18T09:29:38.029Z,13.90
2018-10-18T09:30:41.368Z,14.00
2018-10-18T09:31:44.715Z,14.00
2018-10-18T09:32:48.073Z,14.00
2018-10-18T09:33:51.469Z,14.10
2018-10-18T09:34:54.860Z,14.10
2018-10-18T09:35:58.212Z,14.00
2018-10-18T09:37:01.610Z,14.00
2018-10-18T09:38:05.227Z,14.00
2018-10-18T09:39:09.033Z,14.00
2018-10-18T09:40:12.442Z,14.00
2018-10-18T09:41:15.815Z,13.90
2018-10-18T09:42:19.160Z,14.00
2018-10-18T09:43:22.540Z,14.00
2018-10-18T09:44:26.018Z,13.90
2018-10-18T09:45:29.280Z,13.80
2018-10-18T09:46:33.645Z,13.90
2018-10-18T09:47:37.276Z,13.90
2018-10-18T09:48:40.670Z,13.90
2018-10-18T09:49:44.008Z,13.90
2018-10-18T09:50:47.388Z,14.00
2018-10-18T09:51:50.760Z,14.00
2018-10-18T09:52:54.174Z,14.00
2018-10-18T09:53:57.804Z,13.90
2018-10-18T09:55:01.200Z,13.90
2018-10-18T09:56:04.695Z,13.90
2018-10-18T09:57:07.975Z,13.80
2018-10-18T09:58:11.325Z,13.90
2018-10-18T09:59:14.723Z,13.80
2018-10-18T10:00:23.498Z,13.80
2018-10-18T10:01:32.143Z,13.80
2018-10-18T10:02:40.809Z,13.80
2018-10-18T10:03:44.153Z,13.90
2018-10-18T10:04:47.534Z,13.80
2018-10-18T10:05:50.877Z,13.90
2018-10-18T10:06:54.259Z,13.90
2018-10-18T10:07:57.649Z,13.80
2018-10-18T10:09:00.995Z,13.70
2018-10-18T10:10:04.668Z,13.70
2018-10-18T10:11:08.037Z,13.70
2018-10-18T10:12:11.408Z,13.70
2018-10-18T10:13:14.871Z,13.70
2018-10-18T10:14:18.175Z,13.80
2018-10-18T10:15:21.582Z,13.70
2018-10-18T10:16:24.930Z,13.60
2018-10-18T10:17:28.347Z,13.60
2018-10-18T10:18:31.681Z,13.60
2018-10-18T10:19:35.019Z,13.60
2018-10-18T10:20:38.397Z,13.60
2018-10-18T10:21:41.757Z,13.60
2018-10-18T10:22:45.113Z,13.70
2018-10-18T10:23:48.457Z,13.70
2018-10-18T10:24:51.838Z,13.70
2018-10-18T10:25:55.204Z,13.70
2018-10-18T10:26:58.583Z,13.70
2018-10-18T10:28:02.171Z,13.80
2018-10-18T10:29:05.548Z,13.80
2018-10-18T10:30:09.186Z,13.90
2018-10-18T10:31:12.627Z,13.80
2018-10-18T10:32:15.949Z,13.90
2018-10-18T10:33:19.355Z,13.90
2018-10-18T10:34:22.704Z,13.90
2018-10-18T10:35:26.095Z,13.90
2018-10-18T10:36:29.426Z,14.00
2018-10-18T10:37:32.827Z,14.10
2018-10-18T10:38:36.808Z,14.10
2018-10-18T10:39:40.157Z,14.10
2018-10-18T10:40:43.505Z,14.20
2018-10-18T10:41:46.942Z,14.20
2018-10-18T10:42:50.306Z,14.20
2018-10-18T10:43:53.673Z,14.20
2018-10-18T10:44:57.158Z,14.20
2018-10-18T10:46:00.540Z,14.20
2018-10-18T10:47:03.888Z,14.20
2018-10-18T10:48:07.383Z,14.20
2018-10-18T10:49:10.720Z,14.20
2018-10-18T10:50:14.101Z,14.20
2018-10-18T10:51:17.566Z,14.20
2018-10-18T10:52:20.873Z,14.30
2018-10-18T10:53:24.218Z,14.20
2018-10-18T10:54:27.564Z,14.30
2018-10-18T10:55:30.945Z,14.30
2018-10-18T10:56:34.293Z,14.30
2018-10-18T10:57:37.676Z,14.30
2018-10-18T10:58:41.068Z,14.30
2018-10-18T10:59:44.424Z,14.30
2018-10-18T11:01:04.119Z,14.30
2018-10-18T11:02:07.583Z,14.30
2018-10-18T11:03:10.915Z,14.40
2018-10-18T11:04:14.400Z,14.50
2018-10-18T11:05:17.780Z,14.60
2018-10-18T11:06:21.240Z,14.70
2018-10-18T11:07:24.621Z,14.80
2018-10-18T11:08:28.181Z,15.00
2018-10-18T11:09:31.560Z,15.20
2018-10-18T11:10:34.934Z,15.40
2018-10-18T11:11:38.278Z,15.60
2018-10-18T11:12:41.668Z,15.80
2018-10-18T11:13:45.105Z,16.00
2018-10-18T11:14:48.458Z,16.20
2018-10-18T11:15:51.856Z,16.30
2018-10-18T11:16:55.256Z,16.40
2018-10-18T11:17:58.623Z,16.60
2018-10-18T11:19:02.014Z,16.70
2018-10-18T11:20:05.468Z,16.80
2018-10-18T11:21:10.417Z,16.80
2018-10-18T11:22:13.743Z,16.80
2018-10-18T11:23:17.733Z,16.90
2018-10-18T11:24:21.099Z,16.90
2018-10-18T11:25:24.501Z,16.90
2018-10-18T11:26:27.856Z,17.00
2018-10-18T11:27:31.210Z,16.90
2018-10-18T11:28:34.658Z,16.90
2018-10-18T11:29:38.033Z,16.90
2018-10-18T11:30:41.385Z,16.90
2018-10-18T11:31:44.785Z,16.90
2018-10-18T11:32:48.097Z,16.90
2018-10-18T11:33:51.449Z,16.80
2018-10-18T11:34:54.783Z,16.80
2018-10-18T11:35:58.160Z,16.70
2018-10-18T11:37:01.575Z,16.80
2018-10-18T11:38:05.597Z,16.90
2018-10-18T11:39:09.507Z,17.10
2018-10-18T11:40:12.863Z,17.40
2018-10-18T11:41:16.193Z,17.70
2018-10-18T11:42:19.589Z,17.90
2018-10-18T11:43:22.907Z,18.10
2018-10-18T11:44:31.668Z,18.20
2018-10-18T11:45:35.003Z,18.30
2018-10-18T11:46:38.372Z,18.20
2018-10-18T11:47:41.732Z,18.30
2018-10-18T11:48:45.064Z,18.40
2018-10-18T11:49:48.435Z,18.40
2018-10-18T11:50:51.772Z,18.40
2018-10-18T11:51:55.151Z,18.50
2018-10-18T11:52:58.896Z,18.60
2018-10-18T11:54:02.239Z,18.60
2018-10-18T11:55:05.632Z,18.70
2018-10-18T11:56:09.017Z,18.60
2018-10-18T11:57:12.380Z,18.70
2018-10-18T11:58:15.883Z,18.70
2018-10-18T11:59:19.217Z,18.60
2018-10-18T12:01:32.315Z,18.30
2018-10-18T12:02:35.703Z,18.20
2018-10-18T12:03:39.039Z,18.10
2018-10-18T12:04:42.418Z,17.90
2018-10-18T12:05:45.752Z,17.80
2018-10-18T12:06:49.083Z,17.70
2018-10-18T12:07:52.435Z,17.70
2018-10-18T12:08:55.748Z,17.70
2018-10-18T12:09:59.116Z,17.60
2018-10-18T12:11:02.578Z,17.60
2018-10-18T12:12:05.863Z,17.70
2018-10-18T12:13:09.207Z,17.70
2018-10-18T12:14:12.567Z,17.80
2018-10-18T12:15:15.915Z,18.00
2018-10-18T12:16:19.237Z,18.20
2018-10-18T12:17:22.585Z,18.50
2018-10-18T12:18:25.933Z,18.80
2018-10-18T12:19:29.287Z,19.00
2018-10-18T12:20:32.644Z,19.20
2018-10-18T12:21:36.007Z,19.20
2018-10-18T12:22:39.841Z,18.90
2018-10-18T12:23:43.173Z,18.90
2018-10-18T12:24:46.520Z,18.90
2018-10-18T12:25:49.841Z,18.90
2018-10-18T12:26:53.278Z,18.90
2018-10-18T12:27:56.566Z,19.00
2018-10-18T12:28:59.913Z,19.10
2018-10-18T12:30:03.855Z,19.20
2018-10-18T12:31:07.172Z,19.40
2018-10-18T12:32:10.632Z,19.50
2018-10-18T12:33:13.859Z,19.70
2018-10-18T12:34:17.179Z,19.80
2018-10-18T12:35:20.528Z,19.90
2018-10-18T12:36:23.852Z,20.10
2018-10-18T12:37:27.178Z,20.10
2018-10-18T12:38:30.500Z,20.20
2018-10-18T12:39:33.877Z,20.10
2018-10-18T12:40:37.244Z,20.20
2018-10-18T12:41:40.638Z,20.00
2018-10-18T12:42:44.989Z,19.90
2018-10-18T12:43:48.345Z,19.80
2018-10-18T12:44:51.699Z,19.80
2018-10-18T12:45:55.068Z,19.70
2018-10-18T12:46:58.403Z,19.50
2018-10-18T12:48:01.729Z,19.30
2018-10-18T12:49:05.315Z,19.10
2018-10-18T12:50:08.719Z,19.00
2018-10-18T12:51:12.074Z,18.90
2018-10-18T12:52:15.436Z,18.90
2018-10-18T12:53:18.760Z,18.80
2018-10-18T12:54:22.094Z,18.50
2018-10-18T12:55:25.440Z,18.50
2018-10-18T12:56:28.803Z,18.30
2018-10-18T12:57:32.111Z,18.40
2018-10-18T12:58:35.472Z,18.40
2018-10-18T12:59:38.783Z,18.40
2018-10-18T13:00:42.099Z,18.40
2018-10-18T13:01:45.469Z,18.40
2018-10-18T13:02:48.824Z,18.40
2018-10-18T13:03:52.187Z,18.30
2018-10-18T13:04:55.515Z,18.20
2018-10-18T13:05:58.893Z,18.30
2018-10-18T13:07:02.875Z,18.20
2018-10-18T13:08:06.201Z,18.20
2018-10-18T13:09:10.240Z,18.30
2018-10-18T13:10:13.566Z,18.20
2018-10-18T13:11:16.895Z,18.10
2018-10-18T13:12:20.384Z,18.20
2018-10-18T13:13:23.616Z,18.40
2018-10-18T13:14:27.499Z,18.40
2018-10-18T13:15:30.875Z,18.20
2018-10-18T13:16:34.188Z,18.10
2018-10-18T13:17:37.633Z,18.10
2018-10-18T13:18:40.947Z,18.00
2018-10-18T13:19:44.340Z,18.00
2018-10-18T13:20:47.695Z,18.00
2018-10-18T13:21:51.023Z,18.00
2018-10-18T13:22:54.352Z,18.10
2018-10-18T13:23:57.734Z,18.40
2018-10-18T13:25:01.056Z,18.70
2018-10-18T13:26:04.784Z,18.90
2018-10-18T13:27:08.123Z,18.90
2018-10-18T13:28:11.444Z,19.10
2018-10-18T13:29:14.816Z,19.40
2018-10-18T13:30:18.208Z,19.60
2018-10-18T13:31:21.475Z,19.70
2018-10-18T13:32:24.828Z,19.80
2018-10-18T13:33:28.154Z,19.90
2018-10-18T13:34:31.540Z,20.10
2018-10-18T13:35:34.881Z,20.30
2018-10-18T13:36:38.201Z,20.70
2018-10-18T13:37:41.546Z,20.90
2018-10-18T13:38:44.868Z,20.90
2018-10-18T13:39:48.235Z,20.80
2018-10-18T13:40:51.650Z,20.80
2018-10-18T13:41:54.956Z,21.00
2018-10-18T13:42:58.321Z,21.30
2018-10-18T13:44:01.725Z,21.80
2018-10-18T13:45:05.939Z,22.10